»·PEaware :: N13127 KSMX-KBFL

N13127 :: KSMX-KBFL

FLIGHT INFORMATION

Flight Status: Arrived
Operator: Privately registered:
United States
More flights under this callsign
Pilot: Richard G. (36290)
Aircraft: Unknown
(/G)
More flights by this aircraft type
Origin: KSMX Santa Maria Pub/Capt Hancock
United States
Destination: KBFL Meadows
United States
More flights between these airports :: More routes between these airports
Route:
File this flight plan on PilotEdge
Remarks:
Altitude:
(Current/Filed)
5,500ft
Speed:
(Current/Filed)
110kts
Departed: 20-Aug-21 11:46 AM
Arrived: 20-Aug-21 12:29 PM
Distance/Time
Traveled:
76nm/0:42
Distance/Time
To Go:
Arrived

Flight Plot

Page will automatically refresh every two minutes.


Map Options




Map Legend


Flown Route
Filed Route
Departure Airport
Arrival Airport
Navaid (VOR, NDB)
Fix

Horizontal Profiles

Position Reports

Time Latitude Longitude Heading Altitude Ground
Speed
20-Aug-21 11:38 34.894686 -120.443447 317 262ft 0kts
20-Aug-21 11:39 34.894686 -120.443447 317 262ft 0kts
20-Aug-21 11:40 34.894686 -120.443447 317 262ft 0kts
20-Aug-21 11:41 34.894686 -120.443447 317 262ft 0kts
20-Aug-21 11:42 34.893971 -120.444135 278 263ft 11kts
20-Aug-21 11:43 34.893436 -120.445262 181 264ft 0kts
20-Aug-21 11:44 34.893020 -120.445477 225 265ft 11kts
20-Aug-21 11:45 34.902739 -120.457748 311 577ft 86kts
20-Aug-21 11:46 34.921143 -120.461244 60 1459ft 96kts
20-Aug-21 11:47 34.933988 -120.429861 63 2188ft 103kts
20-Aug-21 11:48 34.946948 -120.399367 55 2992ft 99kts
20-Aug-21 11:49 34.962117 -120.372320 53 3794ft 94kts
20-Aug-21 11:50 34.976911 -120.346444 53 4540ft 94kts
20-Aug-21 11:51 34.992032 -120.320115 53 5229ft 93kts
20-Aug-21 11:52 35.010845 -120.294229 43 5537ft 118kts
20-Aug-21 11:53 35.034673 -120.265891 42 5531ft 119kts
20-Aug-21 11:54 35.058659 -120.237461 42 5536ft 120kts
20-Aug-21 11:55 35.078869 -120.205924 74 5531ft 123kts
20-Aug-21 11:56 35.087370 -120.169206 72 6038ft 101kts
20-Aug-21 11:57 35.095727 -120.138634 65 6715ft 91kts
20-Aug-21 11:58 35.105123 -120.109037 65 7335ft 95kts
20-Aug-21 11:59 35.115634 -120.075453 66 7620ft 120kts
20-Aug-21 12:00 35.128209 -120.035825 67 7618ft 128kts
20-Aug-21 12:01 35.141079 -119.995219 67 7601ft 127kts
20-Aug-21 12:02 35.153910 -119.954715 68 7605ft 128kts
20-Aug-21 12:03 35.166778 -119.914133 68 7608ft 128kts
20-Aug-21 12:04 35.179576 -119.873737 69 7600ft 127kts
20-Aug-21 12:05 35.192383 -119.833371 69 7602ft 127kts
20-Aug-21 12:06 35.205166 -119.793031 69 7602ft 127kts
20-Aug-21 12:07 35.218021 -119.752368 69 7608ft 128kts
20-Aug-21 12:08 35.230814 -119.711810 69 7614ft 128kts
20-Aug-21 12:09 35.243580 -119.671250 68 7597ft 127kts
20-Aug-21 12:10 35.255504 -119.630635 73 7600ft 127kts
20-Aug-21 12:11 35.264951 -119.588182 73 7380ft 134kts
20-Aug-21 12:12 35.276406 -119.544795 69 6876ft 129kts
20-Aug-21 12:13 35.288988 -119.504081 68 6375ft 127kts
20-Aug-21 12:14 35.301566 -119.463633 68 5877ft 126kts
20-Aug-21 12:15 35.311924 -119.422680 73 5376ft 128kts
20-Aug-21 12:16 35.321931 -119.380132 73 4877ft 130kts
20-Aug-21 12:17 35.332385 -119.337536 67 4376ft 130kts
20-Aug-21 12:18 35.351274 -119.299683 62 3874ft 129kts
20-Aug-21 12:19 35.359047 -119.256512 78 3374ft 130kts
20-Aug-21 12:20 35.368464 -119.216379 69 2871ft 119kts
20-Aug-21 12:21 35.380255 -119.178236 68 2373ft 119kts
20-Aug-21 12:22 35.383265 -119.139100 102 1874ft 122kts
20-Aug-21 12:23 35.375992 -119.098844 103 1674ft 114kts
20-Aug-21 12:24 35.371472 -119.061654 58 1666ft 103kts
20-Aug-21 12:25 35.387137 -119.035580 49 1667ft 95kts
20-Aug-21 12:26 35.407067 -119.024173 323 1164ft 78kts
20-Aug-21 12:27 35.421519 -119.041532 312 805ft 71kts
20-Aug-21 12:28 35.434384 -119.056847 315 494ft 25kts
20-Aug-21 12:29 35.436302 -119.057702 62 494ft 0kts
20-Aug-21 12:30 35.434823 -119.055113 135 489ft 19kts
20-Aug-21 12:31 35.435289 -119.053855 128 490ft 0kts
20-Aug-21 12:32 35.435289 -119.053855 128 490ft 0kts
20-Aug-21 12:33 35.435289 -119.053855 128 490ft 0kts
20-Aug-21 12:34 35.435289 -119.053855 128 490ft 0kts
20-Aug-21 12:35 35.435289 -119.053855 128 490ft 0kts
20-Aug-21 12:36 35.435289 -119.053855 128 490ft 0kts
20-Aug-21 12:37 35.435289 -119.053855 128 490ft 0kts
20-Aug-21 12:38 35.435289 -119.053855 128 490ft 0kts
20-Aug-21 12:39 35.435289 -119.053855 128 490ft 0kts
20-Aug-21 12:40 35.435289 -119.053855 128 490ft 0kts
20-Aug-21 12:41 35.435289 -119.053855 128 490ft 0kts
20-Aug-21 12:43 35.435289 -119.053855 128 490ft 0kts

Navigation Log

Ident Type
Flight plan parsing failed, navigation log unavailable